createdAt,value
2022-12-23T00:01:02.705Z,8.30
2022-12-23T00:03:30.742Z,8.30
2022-12-23T00:05:58.213Z,8.30
2022-12-23T00:08:26.058Z,8.30
2022-12-23T00:10:56.236Z,8.30
2022-12-23T00:13:41.668Z,8.30
2022-12-23T00:16:13.814Z,8.30
2022-12-23T00:18:41.748Z,8.40
2022-12-23T00:21:12.017Z,8.40
2022-12-23T00:23:41.430Z,8.40
2022-12-23T00:26:13.754Z,8.40
2022-12-23T00:28:40.699Z,8.40
2022-12-23T00:31:08.257Z,8.40
2022-12-23T00:33:43.074Z,8.40
2022-12-23T00:36:19.289Z,8.40
2022-12-23T00:39:05.031Z,8.30
2022-12-23T00:41:50.823Z,8.30
2022-12-23T00:44:17.774Z,8.30
2022-12-23T00:46:44.831Z,8.20
2022-12-23T00:49:32.312Z,8.20
2022-12-23T00:51:59.874Z,8.20
2022-12-23T00:54:26.966Z,8.20
2022-12-23T00:56:54.834Z,8.20
2022-12-23T00:59:21.792Z,8.20
2022-12-23T01:02:07.697Z,8.20
2022-12-23T01:04:53.976Z,8.20
2022-12-23T01:07:22.272Z,8.20
2022-12-23T01:09:49.220Z,8.20
2022-12-23T01:12:16.196Z,8.20
2022-12-23T01:14:43.166Z,8.20
2022-12-23T01:17:10.171Z,8.20
2022-12-23T01:19:37.278Z,8.20
2022-12-23T01:22:04.205Z,8.20
2022-12-23T01:24:33.721Z,8.20
2022-12-23T01:27:00.987Z,8.20
2022-12-23T01:29:28.995Z,8.20
2022-12-23T01:31:56.073Z,8.20
2022-12-23T01:34:23.144Z,8.10
2022-12-23T01:36:50.199Z,8.10
2022-12-23T01:39:17.197Z,8.20
2022-12-23T01:42:03.126Z,8.20
2022-12-23T01:45:02.378Z,8.20
2022-12-23T01:47:34.951Z,8.20
2022-12-23T01:50:14.770Z,8.20
2022-12-23T01:53:06.948Z,8.20
2022-12-23T01:56:01.192Z,8.10
2022-12-23T01:58:51.334Z,8.10
2022-12-23T02:01:37.746Z,8.10
2022-12-23T02:04:08.108Z,8.10
2022-12-23T02:06:58.170Z,8.10
2022-12-23T02:09:37.065Z,8.10
2022-12-23T02:12:07.068Z,8.10
2022-12-23T02:15:02.344Z,8.10
2022-12-23T02:17:48.114Z,8.20
2022-12-23T02:20:32.748Z,8.20
2022-12-23T02:23:05.463Z,8.20
2022-12-23T02:25:47.111Z,8.10
2022-12-23T02:28:32.887Z,8.10
2022-12-23T02:31:20.121Z,8.10
2022-12-23T02:34:02.014Z,8.10
2022-12-23T02:36:52.214Z,8.10
2022-12-23T02:39:30.877Z,8.00
2022-12-23T02:42:04.065Z,8.10
2022-12-23T02:44:37.923Z,8.10
2022-12-23T02:47:11.162Z,8.10
2022-12-23T02:49:43.044Z,8.20
2022-12-23T02:52:15.523Z,8.20
2022-12-23T02:54:47.002Z,8.20
2022-12-23T02:57:18.061Z,8.20
2022-12-23T02:59:49.113Z,8.20
2022-12-23T03:02:16.431Z,8.20
2022-12-23T03:04:43.532Z,8.20
2022-12-23T03:07:26.652Z,8.20
2022-12-23T03:10:18.710Z,8.20
2022-12-23T03:13:08.645Z,8.20
2022-12-23T03:16:04.649Z,8.30
2022-12-23T03:18:53.419Z,8.20
2022-12-23T03:21:35.788Z,8.30
2022-12-23T03:24:35.413Z,8.30
2022-12-23T03:27:10.338Z,8.30
2022-12-23T03:30:05.904Z,8.30
2022-12-23T03:32:39.111Z,8.30
2022-12-23T03:35:09.639Z,8.30
2022-12-23T03:37:41.114Z,8.30
2022-12-23T03:40:41.668Z,8.30
2022-12-23T03:43:19.853Z,8.30
2022-12-23T03:45:58.677Z,8.30
2022-12-23T03:48:58.346Z,8.30
2022-12-23T03:51:38.449Z,8.30
2022-12-23T03:54:12.007Z,8.30
2022-12-23T03:56:43.072Z,8.30
2022-12-23T03:59:24.247Z,8.30
2022-12-23T04:02:36.971Z,8.30
2022-12-23T04:05:03.925Z,8.30
2022-12-23T04:07:46.012Z,8.20
2022-12-23T04:10:13.758Z,8.20
2022-12-23T04:12:40.985Z,8.20
2022-12-23T04:15:12.876Z,8.30
2022-12-23T04:17:40.203Z,8.20
2022-12-23T04:20:07.879Z,8.20
2022-12-23T04:22:34.826Z,8.20
2022-12-23T04:25:01.767Z,8.20
2022-12-23T04:27:28.680Z,8.20
2022-12-23T04:29:55.582Z,8.20
2022-12-23T04:32:22.582Z,8.20
2022-12-23T04:34:49.472Z,8.20
2022-12-23T04:37:16.397Z,8.20
2022-12-23T04:39:43.289Z,8.20
2022-12-23T04:42:10.262Z,8.20
2022-12-23T04:44:37.181Z,8.20
2022-12-23T04:47:04.216Z,8.20
2022-12-23T04:49:31.879Z,8.20
2022-12-23T04:51:59.121Z,8.20
2022-12-23T04:54:26.127Z,8.20
2022-12-23T04:56:53.208Z,8.20
2022-12-23T04:59:20.139Z,8.30
2022-12-23T05:01:47.387Z,8.30
2022-12-23T05:04:14.595Z,8.30
2022-12-23T05:06:41.555Z,8.30
2022-12-23T05:09:08.726Z,8.20
2022-12-23T05:11:41.885Z,8.20
2022-12-23T05:14:13.058Z,8.20
2022-12-23T05:16:40.127Z,8.20
2022-12-23T05:19:07.342Z,8.20
2022-12-23T05:21:34.352Z,8.20
2022-12-23T05:24:01.283Z,8.20
2022-12-23T05:26:28.212Z,8.20
2022-12-23T05:28:55.772Z,8.20
2022-12-23T05:31:22.965Z,8.20
2022-12-23T05:33:50.192Z,8.20
2022-12-23T05:36:17.199Z,8.20
2022-12-23T05:38:44.108Z,8.20
2022-12-23T05:41:11.136Z,8.20
2022-12-23T05:43:38.081Z,8.10
2022-12-23T05:46:05.235Z,8.00
2022-12-23T05:48:32.277Z,8.00
2022-12-23T05:50:59.257Z,8.00
2022-12-23T05:53:26.685Z,7.90
2022-12-23T05:55:53.657Z,7.90
2022-12-23T05:58:20.657Z,7.90
2022-12-23T06:00:47.525Z,7.90
2022-12-23T06:03:14.656Z,7.90
2022-12-23T06:05:43.612Z,8.00
2022-12-23T06:08:10.613Z,7.90
2022-12-23T06:10:37.587Z,8.00
2022-12-23T06:13:04.566Z,7.90
2022-12-23T06:15:31.570Z,8.00
2022-12-23T06:17:58.481Z,7.90
2022-12-23T06:20:25.426Z,7.90
2022-12-23T06:22:52.406Z,7.90
2022-12-23T06:25:19.405Z,7.90
2022-12-23T06:27:46.571Z,7.90
2022-12-23T06:30:14.191Z,7.90
2022-12-23T06:32:41.261Z,7.90
2022-12-23T06:35:09.002Z,7.90
2022-12-23T06:37:36.023Z,7.90
2022-12-23T06:40:03.003Z,7.90
2022-12-23T06:42:29.949Z,7.90
2022-12-23T06:44:56.900Z,7.90
2022-12-23T06:47:23.821Z,7.90
2022-12-23T06:49:50.942Z,7.90
2022-12-23T06:52:18.002Z,7.90
2022-12-23T06:54:44.944Z,7.90
2022-12-23T06:57:11.889Z,7.90
2022-12-23T06:59:38.799Z,8.00
2022-12-23T07:02:06.639Z,8.00
2022-12-23T07:04:33.665Z,8.00
2022-12-23T07:07:00.613Z,8.00
2022-12-23T07:09:27.900Z,8.00
2022-12-23T07:11:54.822Z,8.00
2022-12-23T07:14:21.808Z,8.00
2022-12-23T07:16:48.844Z,7.90
2022-12-23T07:19:15.817Z,8.00
2022-12-23T07:21:42.676Z,8.00
2022-12-23T07:24:09.788Z,8.00
2022-12-23T07:26:36.739Z,8.00
2022-12-23T07:29:04.685Z,8.00
2022-12-23T07:31:31.747Z,8.00
2022-12-23T07:33:58.748Z,8.00
2022-12-23T07:36:25.660Z,8.00
2022-12-23T07:38:52.687Z,8.00
2022-12-23T07:41:19.848Z,8.00
2022-12-23T07:43:47.228Z,8.10
2022-12-23T07:46:14.292Z,8.10
2022-12-23T07:48:44.025Z,8.20
2022-12-23T07:51:11.032Z,8.20
2022-12-23T07:53:38.043Z,8.30
2022-12-23T07:56:06.717Z,8.30
2022-12-23T07:58:33.654Z,8.40
2022-12-23T08:01:09.562Z,8.50
2022-12-23T08:03:37.543Z,8.70
2022-12-23T08:06:12.356Z,8.70
2022-12-23T08:08:40.428Z,8.80
2022-12-23T08:11:09.532Z,8.70
2022-12-23T08:13:38.890Z,8.70
2022-12-23T08:16:07.056Z,8.70
2022-12-23T08:18:37.207Z,8.70
2022-12-23T08:21:06.706Z,8.70
2022-12-23T08:23:34.543Z,8.70
2022-12-23T08:26:12.964Z,8.70
2022-12-23T08:28:41.692Z,8.70
2022-12-23T08:31:11.926Z,8.80
2022-12-23T08:33:40.668Z,8.70
2022-12-23T08:36:09.698Z,8.70
2022-12-23T08:38:37.334Z,8.70
2022-12-23T08:41:08.523Z,8.70
2022-12-23T08:43:36.117Z,8.70
2022-12-23T08:46:04.272Z,8.70
2022-12-23T08:48:32.089Z,8.80
2022-12-23T08:51:05.242Z,8.80
2022-12-23T08:53:33.672Z,8.90
2022-12-23T08:56:12.804Z,9.00
2022-12-23T08:58:42.768Z,9.10
2022-12-23T09:01:11.458Z,9.20
2022-12-23T09:03:39.669Z,9.30
2022-12-23T09:06:09.840Z,9.40
2022-12-23T09:08:37.387Z,9.50
2022-12-23T09:11:04.955Z,9.60
2022-12-23T09:13:35.817Z,10.00
2022-12-23T09:16:04.116Z,10.60
2022-12-23T09:18:32.118Z,11.60
2022-12-23T09:21:01.100Z,12.60
2022-12-23T09:23:28.092Z,13.30
2022-12-23T09:25:55.479Z,13.80
2022-12-23T09:28:23.726Z,14.30
2022-12-23T09:30:51.295Z,14.50
2022-12-23T09:33:19.822Z,14.60
2022-12-23T09:35:46.855Z,14.60
2022-12-23T09:38:13.807Z,14.50
2022-12-23T09:40:42.437Z,14.40
2022-12-23T09:43:33.540Z,14.20
2022-12-23T09:46:16.205Z,13.90
2022-12-23T09:48:48.890Z,13.70
2022-12-23T09:51:20.501Z,14.00
2022-12-23T09:54:05.710Z,14.10
2022-12-23T09:56:51.923Z,14.30
2022-12-23T09:59:33.908Z,14.60
2022-12-23T10:02:23.632Z,14.60
2022-12-23T10:05:13.496Z,14.60
2022-12-23T10:07:45.644Z,14.50
2022-12-23T10:10:42.326Z,14.40
2022-12-23T10:13:27.851Z,14.50
2022-12-23T10:15:58.005Z,14.20
2022-12-23T10:18:35.498Z,13.60
2022-12-23T10:21:14.581Z,13.00
2022-12-23T10:23:46.455Z,12.60
2022-12-23T10:26:41.592Z,12.20
2022-12-23T10:29:19.798Z,11.80
2022-12-23T10:32:15.522Z,11.70
2022-12-23T10:35:01.356Z,11.60
2022-12-23T10:37:40.566Z,11.40
2022-12-23T10:40:29.520Z,11.30
2022-12-23T10:43:08.425Z,11.20
2022-12-23T10:46:01.818Z,11.10
2022-12-23T10:48:56.203Z,11.00
2022-12-23T10:51:30.202Z,10.90
2022-12-23T10:54:03.915Z,10.90
2022-12-23T10:56:31.697Z,11.00
2022-12-23T10:59:01.362Z,11.00
2022-12-23T11:01:32.255Z,11.00
2022-12-23T11:04:14.923Z,11.00
2022-12-23T11:06:46.768Z,11.10
2022-12-23T11:09:20.926Z,11.10
2022-12-23T11:12:06.445Z,11.10
2022-12-23T11:14:42.908Z,11.20
2022-12-23T11:17:22.270Z,11.20
2022-12-23T11:20:05.832Z,11.20
2022-12-23T11:22:32.840Z,11.20
2022-12-23T11:25:27.693Z,11.30
2022-12-23T11:28:02.443Z,11.40
2022-12-23T11:30:31.830Z,11.40
2022-12-23T11:32:59.157Z,11.40
2022-12-23T11:35:36.783Z,11.30
2022-12-23T11:38:04.341Z,11.30
2022-12-23T11:40:38.042Z,11.20
2022-12-23T11:43:15.925Z,11.30
2022-12-23T11:45:42.900Z,11.30
2022-12-23T11:48:34.354Z,11.30
2022-12-23T11:51:03.428Z,11.30
2022-12-23T11:53:31.425Z,11.30
2022-12-23T11:56:15.558Z,11.40
2022-12-23T11:58:54.056Z,11.60
2022-12-23T12:01:24.107Z,11.70
2022-12-23T12:03:59.362Z,12.10
2022-12-23T12:06:27.755Z,12.40
2022-12-23T12:08:58.300Z,12.80
2022-12-23T12:11:33.459Z,13.60
2022-12-23T12:14:04.418Z,14.10
2022-12-23T12:16:31.473Z,14.30
2022-12-23T12:19:19.380Z,15.00
2022-12-23T12:21:49.351Z,16.20
2022-12-23T12:24:25.241Z,17.00
2022-12-23T12:26:57.540Z,17.80
2022-12-23T12:29:45.866Z,18.60
2022-12-23T12:32:47.097Z,19.40
2022-12-23T12:35:43.437Z,19.90
2022-12-23T12:38:27.155Z,19.50
2022-12-23T12:41:21.756Z,18.80
2022-12-23T12:44:03.541Z,18.00
2022-12-23T12:46:42.521Z,17.70
2022-12-23T12:49:41.087Z,18.10
2022-12-23T12:52:22.122Z,18.60
2022-12-23T12:54:54.845Z,18.50
2022-12-23T12:57:23.345Z,18.50
2022-12-23T13:00:05.594Z,18.70
2022-12-23T13:03:01.343Z,18.60
2022-12-23T13:05:55.082Z,18.20
2022-12-23T13:08:33.939Z,17.70
2022-12-23T13:11:14.780Z,17.20
2022-12-23T13:14:18.622Z,16.80
2022-12-23T13:17:08.378Z,16.30
2022-12-23T13:19:53.218Z,15.90
2022-12-23T13:22:33.829Z,15.70
2022-12-23T13:25:29.972Z,15.60
2022-12-23T13:28:18.124Z,15.80
2022-12-23T13:30:57.700Z,15.80
2022-12-23T13:33:45.169Z,15.60
2022-12-23T13:36:14.903Z,15.40
2022-12-23T13:39:24.191Z,15.10
2022-12-23T13:41:58.596Z,14.80
2022-12-23T13:44:30.375Z,14.40
2022-12-23T13:47:18.625Z,14.00
2022-12-23T13:50:04.363Z,13.70
2022-12-23T13:52:55.966Z,13.50
2022-12-23T13:55:47.771Z,13.40
2022-12-23T13:58:18.279Z,13.20
2022-12-23T14:00:45.854Z,13.00
2022-12-23T14:03:24.714Z,12.90
2022-12-23T14:05:53.204Z,12.80
2022-12-23T14:08:20.245Z,12.60
2022-12-23T14:11:17.823Z,12.50
2022-12-23T14:13:50.842Z,12.40
2022-12-23T14:16:32.766Z,12.30
2022-12-23T14:19:08.583Z,12.30
2022-12-23T14:21:58.177Z,12.20
2022-12-23T14:24:53.326Z,12.10
2022-12-23T14:27:31.949Z,12.00
2022-12-23T14:30:06.531Z,11.80
2022-12-23T14:32:52.729Z,11.60
2022-12-23T14:35:40.099Z,11.50
2022-12-23T14:38:15.450Z,11.30
2022-12-23T14:40:42.430Z,11.20
2022-12-23T14:43:26.590Z,11.10
2022-12-23T14:45:55.851Z,11.00
2022-12-23T14:48:44.437Z,10.90
2022-12-23T14:51:14.426Z,10.80
2022-12-23T14:53:59.183Z,10.70
2022-12-23T14:56:26.118Z,10.60
2022-12-23T14:59:12.629Z,10.60
2022-12-23T15:01:50.291Z,10.50
2022-12-23T15:04:21.992Z,10.50
2022-12-23T15:06:53.353Z,10.40
2022-12-23T15:09:26.863Z,10.30
2022-12-23T15:11:56.299Z,10.20
2022-12-23T15:14:43.033Z,10.10
2022-12-23T15:17:25.471Z,10.00
2022-12-23T15:19:53.187Z,9.90
2022-12-23T15:22:26.835Z,9.80
2022-12-23T15:24:57.206Z,9.70
2022-12-23T15:27:27.923Z,9.60
2022-12-23T15:29:56.431Z,9.50
2022-12-23T15:32:25.070Z,9.40
2022-12-23T15:34:53.123Z,9.30
2022-12-23T15:37:27.610Z,9.20
2022-12-23T15:40:04.516Z,9.20
2022-12-23T15:42:35.524Z,9.10
2022-12-23T15:45:23.790Z,9.10
2022-12-23T15:47:51.099Z,9.00
2022-12-23T15:50:19.114Z,8.90
2022-12-23T15:52:49.199Z,8.80
2022-12-23T15:55:31.191Z,8.80
2022-12-23T15:57:59.982Z,8.70
2022-12-23T16:00:29.206Z,8.70
2022-12-23T16:03:01.048Z,8.60
2022-12-23T16:05:39.022Z,8.50
2022-12-23T16:08:19.336Z,8.50
2022-12-23T16:11:05.748Z,8.40
2022-12-23T16:13:33.141Z,8.30
2022-12-23T16:16:37.661Z,8.30
2022-12-23T16:19:05.057Z,8.20
2022-12-23T16:21:35.413Z,8.20
2022-12-23T16:24:08.441Z,8.10
2022-12-23T16:26:45.055Z,8.10
2022-12-23T16:29:12.748Z,8.10
2022-12-23T16:31:44.312Z,8.00
2022-12-23T16:34:15.329Z,8.00
2022-12-23T16:36:42.312Z,8.00
2022-12-23T16:39:09.222Z,8.00
2022-12-23T16:41:36.457Z,7.90
2022-12-23T16:44:04.401Z,8.00
2022-12-23T16:46:36.585Z,7.90
2022-12-23T16:49:06.617Z,8.00
2022-12-23T16:51:34.270Z,7.90
2022-12-23T16:54:01.738Z,7.90
2022-12-23T16:56:34.863Z,7.90
2022-12-23T16:59:02.250Z,7.90
2022-12-23T17:01:35.036Z,7.90
2022-12-23T17:04:02.366Z,7.90
2022-12-23T17:06:29.283Z,7.90
2022-12-23T17:08:57.070Z,7.90
2022-12-23T17:11:29.017Z,7.90
2022-12-23T17:14:03.292Z,8.00
2022-12-23T17:16:31.822Z,8.00
2022-12-23T17:18:58.853Z,8.00
2022-12-23T17:21:36.753Z,8.00
2022-12-23T17:24:25.519Z,8.00
2022-12-23T17:26:53.274Z,8.00
2022-12-23T17:29:21.113Z,8.00
2022-12-23T17:31:50.108Z,8.00
2022-12-23T17:34:19.621Z,8.00
2022-12-23T17:36:50.233Z,8.00
2022-12-23T17:39:18.732Z,8.00
2022-12-23T17:41:45.937Z,8.00
2022-12-23T17:44:17.603Z,8.00
2022-12-23T17:46:46.005Z,8.00
2022-12-23T17:49:12.985Z,8.00
2022-12-23T17:51:40.500Z,8.00
2022-12-23T17:54:16.576Z,8.00
2022-12-23T17:56:43.496Z,8.00
2022-12-23T17:59:10.441Z,8.00
2022-12-23T18:01:37.959Z,7.90
2022-12-23T18:04:18.395Z,7.90
2022-12-23T18:06:45.325Z,7.80
2022-12-23T18:09:12.257Z,7.80
2022-12-23T18:11:44.834Z,7.70
2022-12-23T18:14:29.509Z,7.70
2022-12-23T18:16:56.617Z,7.60
2022-12-23T18:19:23.720Z,7.60
2022-12-23T18:21:51.700Z,7.60
2022-12-23T18:24:18.904Z,7.60
2022-12-23T18:26:46.306Z,7.60
2022-12-23T18:29:13.502Z,7.70
2022-12-23T18:31:51.229Z,7.70
2022-12-23T18:34:19.466Z,7.80
2022-12-23T18:36:48.215Z,7.90
2022-12-23T18:39:15.446Z,7.90
2022-12-23T18:41:42.370Z,8.00
2022-12-23T18:44:18.067Z,8.00
2022-12-23T18:46:46.079Z,8.10
2022-12-23T18:49:13.071Z,8.10
2022-12-23T18:51:40.049Z,8.20
2022-12-23T18:54:07.113Z,8.20
2022-12-23T18:56:34.069Z,8.20
2022-12-23T18:59:01.049Z,8.20
2022-12-23T19:01:28.119Z,8.20
2022-12-23T19:03:55.031Z,8.20
2022-12-23T19:06:22.053Z,8.20
2022-12-23T19:08:49.000Z,8.20
2022-12-23T19:11:19.024Z,8.20
2022-12-23T19:13:46.607Z,8.20
2022-12-23T19:16:15.930Z,8.20
2022-12-23T19:18:43.138Z,8.20
2022-12-23T19:21:10.306Z,8.20
2022-12-23T19:23:39.376Z,8.20
2022-12-23T19:26:06.375Z,8.20
2022-12-23T19:28:33.686Z,8.20
2022-12-23T19:31:00.766Z,8.20
2022-12-23T19:33:27.887Z,8.20
2022-12-23T19:35:55.192Z,8.20
2022-12-23T19:38:22.387Z,8.30
2022-12-23T19:40:57.589Z,8.30
2022-12-23T19:43:24.675Z,8.30
2022-12-23T19:45:59.272Z,8.30
2022-12-23T19:48:27.069Z,8.30
2022-12-23T19:51:13.982Z,8.30
2022-12-23T19:53:42.333Z,8.30
2022-12-23T19:56:13.477Z,8.40
2022-12-23T19:58:42.322Z,8.40
2022-12-23T20:01:18.217Z,8.40
2022-12-23T20:03:47.083Z,8.40
2022-12-23T20:06:19.747Z,8.40
2022-12-23T20:08:48.660Z,8.40
2022-12-23T20:11:20.700Z,8.40
2022-12-23T20:13:51.523Z,8.40
2022-12-23T20:16:18.847Z,8.40
2022-12-23T20:18:46.041Z,8.40
2022-12-23T20:21:13.340Z,8.50
2022-12-23T20:23:40.639Z,8.50
2022-12-23T20:26:07.908Z,8.50
2022-12-23T20:28:35.194Z,8.50
2022-12-23T20:31:09.480Z,8.50
2022-12-23T20:33:38.185Z,8.50
2022-12-23T20:36:10.182Z,8.60
2022-12-23T20:38:41.445Z,8.60
2022-12-23T20:41:10.077Z,8.50
2022-12-23T20:43:37.492Z,8.60
2022-12-23T20:46:06.284Z,8.60
2022-12-23T20:48:34.733Z,8.60
2022-12-23T20:51:06.447Z,8.60
2022-12-23T20:53:33.442Z,8.60
2022-12-23T20:56:01.529Z,8.60
2022-12-23T20:58:47.015Z,8.70
2022-12-23T21:01:14.175Z,8.70
2022-12-23T21:03:41.736Z,8.60
2022-12-23T21:06:09.285Z,8.60
2022-12-23T21:08:38.006Z,8.70
2022-12-23T21:11:06.201Z,8.70
2022-12-23T21:13:33.671Z,8.60
2022-12-23T21:16:05.847Z,8.60
2022-12-23T21:18:33.453Z,8.70
2022-12-23T21:21:14.382Z,8.70
2022-12-23T21:23:42.131Z,8.70
2022-12-23T21:26:40.214Z,8.70
2022-12-23T21:29:09.174Z,8.70
2022-12-23T21:31:38.343Z,8.70
2022-12-23T21:34:06.573Z,8.80
2022-12-23T21:36:36.653Z,8.80
2022-12-23T21:39:04.974Z,8.70
2022-12-23T21:41:38.754Z,8.70
2022-12-23T21:44:05.929Z,8.70
2022-12-23T21:46:33.677Z,8.70
2022-12-23T21:49:00.850Z,8.80
2022-12-23T21:51:38.561Z,8.70
2022-12-23T21:54:07.315Z,8.80
2022-12-23T21:56:34.535Z,8.80
2022-12-23T21:59:05.463Z,8.80
2022-12-23T22:01:33.274Z,8.80
2022-12-23T22:04:00.247Z,8.80
2022-12-23T22:06:33.223Z,8.80
2022-12-23T22:09:00.234Z,8.90
2022-12-23T22:11:30.101Z,8.90
2022-12-23T22:13:58.629Z,8.80
2022-12-23T22:16:27.713Z,8.80
2022-12-23T22:18:55.752Z,8.80
2022-12-23T22:21:25.119Z,8.80
2022-12-23T22:23:53.498Z,8.80
2022-12-23T22:26:25.596Z,8.80
2022-12-23T22:28:58.633Z,8.90
2022-12-23T22:31:39.856Z,8.90
2022-12-23T22:34:08.035Z,8.90
2022-12-23T22:36:35.254Z,8.90
2022-12-23T22:39:02.702Z,8.90
2022-12-23T22:41:30.387Z,8.90
2022-12-23T22:43:58.322Z,8.90
2022-12-23T22:46:25.903Z,8.90
2022-12-23T22:48:53.506Z,8.90
2022-12-23T22:51:28.300Z,8.90
2022-12-23T22:53:56.579Z,8.90
2022-12-23T22:56:24.993Z,8.90
2022-12-23T22:58:53.163Z,8.90
2022-12-23T23:01:27.029Z,8.90
2022-12-23T23:03:58.775Z,8.90
2022-12-23T23:06:37.669Z,8.90
2022-12-23T23:09:07.362Z,9.00
2022-12-23T23:11:34.558Z,9.00
2022-12-23T23:14:01.744Z,8.90
2022-12-23T23:16:28.759Z,9.00
2022-12-23T23:18:55.777Z,8.90
2022-12-23T23:21:22.770Z,9.00
2022-12-23T23:23:49.967Z,9.00
2022-12-23T23:26:18.214Z,9.00
2022-12-23T23:28:45.325Z,9.00
2022-12-23T23:33:59.438Z,9.00
2022-12-23T23:36:27.276Z,9.00
2022-12-23T23:38:54.543Z,8.90
2022-12-23T23:41:23.734Z,8.90
2022-12-23T23:43:51.194Z,8.80
2022-12-23T23:46:18.503Z,8.80
2022-12-23T23:48:45.828Z,8.80
2022-12-23T23:51:13.011Z,8.70
2022-12-23T23:53:40.636Z,8.70
2022-12-23T23:56:08.367Z,8.70
2022-12-23T23:58:36.782Z,8.70
